This is the latest recevied weather packets stored in our database for station/object JS2HDO-13. If no packets are shown the sender has not sent any weather packets the latest 1 day(s).
| Time | Temp. | Humidity | Pressure | Rain* | Wind** | Luminosity | Snow |
|---|---|---|---|---|---|---|---|
| 1778115536 | 20.56° C | 80% | 1012.9 hPa | 0 mm | - | - | - |
| 1778114935 | 20.56° C | 80% | 1013 hPa | 0 mm | - | - | - |
| 1778114336 | 20.56° C | 78% | 1013.2 hPa | 0 mm | - | - | - |
| 1778111335 | 20.56° C | 80% | 1013.3 hPa | 0 mm | - | - | - |
| 1778108936 | 20.56° C | 82% | 1013.5 hPa | 0 mm | - | - | - |
| 1778108336 | 19.44° C | 83% | 1013.7 hPa | 0 mm | - | - | - |
| 1778105336 | 18.33° C | 86% | 1014.1 hPa | 0 mm | - | - | - |
| 1778104136 | 18.33° C | 85% | 1014.1 hPa | 0 mm | - | - | - |
| 1778100535 | 16.11° C | 89% | 1014.3 hPa | 0 mm | - | - | - |
| 1778098135 | 15.56° C | 90% | 1014 hPa | 0 mm | - | - | - |
| 1778096935 | 15° C | 92% | 1014 hPa | 0 mm | - | - | - |
| 1778096218 | 15° C | 92% | 1014 hPa | 0 mm | - | - | - |
| 1778095018 | 15° C | 93% | 1014.5 hPa | 0 mm | - | - | - |
| 1778093935 | 15° C | 94% | 1014.6 hPa | 0 mm | - | - | - |
| 1778093336 | 15° C | 93% | 1014.8 hPa | 0 mm | - | - | - |
| 1778092735 | 15° C | 93% | 1014.9 hPa | 0 mm | - | - | - |
| 1778092136 | 15° C | 93% | 1014.8 hPa | 0 mm | - | - | - |
| 1778087335 | 15° C | 88% | 1015.2 hPa | 0 mm | - | - | - |
| 1778084936 | 15° C | 88% | 1015.3 hPa | 0 mm | - | - | - |
| 1778083736 | 15° C | 88% | 1015.7 hPa | 0 mm | - | - | - |
| 1778083135 | 15° C | 89% | 1015.6 hPa | 0 mm | - | - | - |
| 1778081336 | 15° C | 91% | 1016 hPa | 0 mm | - | - | - |
| 1778077735 | 14.44° C | 91% | 1016.9 hPa | 0 mm | - | - | - |
| 1778077136 | 14.44° C | 91% | 1016.9 hPa | 0 mm | - | - | - |
| 1778075936 | 13.89° C | 93% | 1017.2 hPa | 0 mm | - | - | - |
* Rain latest hour (hover to see other rain measurements)
** Current wind speed in m/s (hover to see current wind gust speed)